createdAt,value
2016-09-28T00:00:35.876Z,13.83
2016-09-28T00:01:35.536Z,13.82
2016-09-28T00:02:35.862Z,13.82
2016-09-28T00:03:35.896Z,13.82
2016-09-28T00:04:35.963Z,13.83
2016-09-28T00:05:35.306Z,13.82
2016-09-28T00:06:35.944Z,13.78
2016-09-28T00:07:35.963Z,13.87
2016-09-28T00:08:35.986Z,13.83
2016-09-28T00:09:35.997Z,13.8
2016-09-28T00:10:35.808Z,13.83
2016-09-28T00:11:36.054Z,13.75
2016-09-28T00:12:36.087Z,13.82
2016-09-28T00:13:35.783Z,13.73
2016-09-28T00:14:35.485Z,13.85
2016-09-28T00:15:36.123Z,13.86
2016-09-28T00:16:36.147Z,13.8
2016-09-28T00:17:36.185Z,13.87
2016-09-28T00:18:36.182Z,13.98
2016-09-28T00:19:36.214Z,13.94
2016-09-28T00:20:35.933Z,13.98
2016-09-28T00:21:36.272Z,13.98
2016-09-28T00:22:36.400Z,13.97
2016-09-28T00:23:36.005Z,14.08
2016-09-28T00:24:35.995Z,14.15
2016-09-28T00:25:36.421Z,14.16
2016-09-28T00:26:36.823Z,14.13
2016-09-28T00:27:36.074Z,14.23
2016-09-28T00:28:36.085Z,14.26
2016-09-28T00:29:36.104Z,14.33
2016-09-28T00:30:36.143Z,14.28
2016-09-28T00:31:36.450Z,14.34
2016-09-28T00:32:36.471Z,14.26
2016-09-28T00:33:36.505Z,14.37
2016-09-28T00:34:35.893Z,14.31
2016-09-28T00:35:36.349Z,14.31
2016-09-28T00:36:36.255Z,14.38
2016-09-28T00:37:36.314Z,14.37
2016-09-28T00:38:36.654Z,14.37
2016-09-28T00:39:36.611Z,14.43
2016-09-28T00:40:36.339Z,14.34
2016-09-28T00:41:36.355Z,14.43
2016-09-28T00:42:36.700Z,14.38
2016-09-28T00:43:36.502Z,14.45
2016-09-28T00:44:36.404Z,14.41
2016-09-28T00:45:36.757Z,14.51
2016-09-28T00:46:36.532Z,14.55
2016-09-28T00:47:36.493Z,14.58
2016-09-28T00:48:36.943Z,14.58
2016-09-28T00:49:36.833Z,14.68
2016-09-28T00:50:36.852Z,14.77
2016-09-28T00:51:36.684Z,14.78
2016-09-28T00:52:36.891Z,14.87
2016-09-28T00:53:36.980Z,14.86
2016-09-28T00:54:36.623Z,14.94
2016-09-28T00:55:36.961Z,14.94
2016-09-28T00:56:37.051Z,14.93
2016-09-28T00:57:36.688Z,15.02
2016-09-28T00:58:36.703Z,14.97
2016-09-28T00:59:37.057Z,15.05
2016-09-28T01:00:37.063Z,15.18
2016-09-28T01:01:37.183Z,15.12
2016-09-28T01:02:37.103Z,15.15
2016-09-28T01:03:36.831Z,15.14
2016-09-28T01:04:36.847Z,15.25
2016-09-28T01:05:36.585Z,15.25
2016-09-28T01:06:36.882Z,15.36
2016-09-28T01:07:36.900Z,15.35
2016-09-28T01:08:36.924Z,15.3
2016-09-28T01:09:37.260Z,15.39
2016-09-28T01:10:37.266Z,15.47
2016-09-28T01:11:37.042Z,15.52
2016-09-28T01:12:37.430Z,15.43
2016-09-28T01:13:37.339Z,15.47
2016-09-28T01:14:37.089Z,15.48
2016-09-28T01:15:37.068Z,15.55
2016-09-28T01:16:37.500Z,15.43
2016-09-28T01:17:37.427Z,15.43
2016-09-28T01:18:36.821Z,15.47
2016-09-28T01:19:37.148Z,15.48
2016-09-28T01:20:37.160Z,15.48
2016-09-28T01:21:37.509Z,15.54
2016-09-28T01:22:37.211Z,15.54
2016-09-28T01:23:37.557Z,15.55
2016-09-28T01:24:37.260Z,15.51
2016-09-28T01:25:36.958Z,15.57
2016-09-28T01:26:37.308Z,15.55
2016-09-28T01:27:37.630Z,15.65
2016-09-28T01:28:37.333Z,15.54
2016-09-28T01:29:37.679Z,15.52
2016-09-28T01:30:37.382Z,15.66
2016-09-28T01:31:37.408Z,15.67
2016-09-28T01:32:37.739Z,15.7
2016-09-28T01:33:37.450Z,15.76
2016-09-28T01:34:37.479Z,15.66
2016-09-28T01:35:37.185Z,15.73
2016-09-28T01:36:37.829Z,15.78
2016-09-28T01:37:37.857Z,15.8
2016-09-28T01:38:37.570Z,15.84
2016-09-28T01:39:37.579Z,15.88
2016-09-28T01:40:38.001Z,15.98
2016-09-28T01:41:37.616Z,15.92
2016-09-28T01:42:37.325Z,16.03
2016-09-28T01:43:37.670Z,15.96
2016-09-28T01:44:37.732Z,15.96
2016-09-28T01:45:38.021Z,15.92
2016-09-28T01:46:38.112Z,16.05
2016-09-28T01:47:37.753Z,16.03
2016-09-28T01:48:38.134Z,16.05
2016-09-28T01:49:37.798Z,16.09
2016-09-28T01:50:37.829Z,16.12
2016-09-28T01:51:37.898Z,16.03
2016-09-28T01:52:38.171Z,16.12
2016-09-28T01:53:37.882Z,16.18
2016-09-28T01:54:37.937Z,16.18
2016-09-28T01:55:38.245Z,16.17
2016-09-28T01:56:37.950Z,16.18
2016-09-28T01:57:38.287Z,16.18
2016-09-28T01:58:37.997Z,16.28
2016-09-28T01:59:38.129Z,16.29
2016-09-28T02:00:38.355Z,16.31
2016-09-28T02:01:38.449Z,16.28
2016-09-28T02:02:38.405Z,16.24
2016-09-28T02:03:38.232Z,16.39
2016-09-28T02:04:38.118Z,16.43
2016-09-28T02:05:37.852Z,16.37
2016-09-28T02:06:38.488Z,16.36
2016-09-28T02:07:38.516Z,16.41
2016-09-28T02:08:38.543Z,16.41
2016-09-28T02:09:38.546Z,16.5
2016-09-28T02:10:38.590Z,16.58
2016-09-28T02:11:38.406Z,16.49
2016-09-28T02:12:38.728Z,16.59
2016-09-28T02:13:38.317Z,16.58
2016-09-28T02:14:38.681Z,16.55
2016-09-28T02:15:38.709Z,16.59
2016-09-28T02:16:38.465Z,16.58
2016-09-28T02:17:38.409Z,16.58
2016-09-28T02:18:38.516Z,16.65
2016-09-28T02:19:38.447Z,16.57
2016-09-28T02:20:38.798Z,16.69
2016-09-28T02:21:38.508Z,16.65
2016-09-28T02:22:38.843Z,16.69
2016-09-28T02:23:38.870Z,16.66
2016-09-28T02:24:38.878Z,16.82
2016-09-28T02:25:38.998Z,16.8
2016-09-28T02:26:38.456Z,16.84
2016-09-28T02:27:38.637Z,16.8
2016-09-28T02:28:38.668Z,16.73
2016-09-28T02:29:38.996Z,16.8
2016-09-28T02:30:39.015Z,16.84
2016-09-28T02:31:38.861Z,16.8
2016-09-28T02:32:39.060Z,16.84
2016-09-28T02:33:38.802Z,16.79
2016-09-28T02:34:39.106Z,16.68
2016-09-28T02:35:38.924Z,16.72
2016-09-28T02:36:39.186Z,16.66
2016-09-28T02:37:39.269Z,16.58
2016-09-28T02:38:39.200Z,16.57
2016-09-28T02:39:38.908Z,16.51
2016-09-28T02:40:39.225Z,16.46
2016-09-28T02:41:39.005Z,16.4
2016-09-28T02:42:38.972Z,16.26
2016-09-28T02:43:38.997Z,16.32
2016-09-28T02:44:39.019Z,16.29
2016-09-28T02:45:39.340Z,16.28
2016-09-28T02:46:39.477Z,16.21
2016-09-28T02:47:38.769Z,16.21
2016-09-28T02:48:39.168Z,16.12
2016-09-28T02:49:39.438Z,16
2016-09-28T02:50:39.556Z,16.05
2016-09-28T02:51:39.528Z,15.98
2016-09-28T02:52:39.189Z,15.92
2016-09-28T02:53:39.528Z,15.88
2016-09-28T02:54:39.564Z,15.96
2016-09-28T02:55:39.267Z,15.91
2016-09-28T02:56:39.389Z,15.84
2016-09-28T02:57:39.620Z,15.8
2016-09-28T02:58:39.019Z,15.73
2016-09-28T02:59:39.335Z,15.66
2016-09-28T03:00:39.680Z,15.76
2016-09-28T03:01:39.581Z,15.76
2016-09-28T03:02:39.623Z,15.87
2016-09-28T03:03:39.944Z,15.83
2016-09-28T03:04:39.778Z,15.88
2016-09-28T03:05:39.713Z,15.83
2016-09-28T03:06:40.136Z,15.98
2016-09-28T03:07:40.010Z,15.9
2016-09-28T03:08:40.057Z,15.96
2016-09-28T03:09:40.082Z,15.94
2016-09-28T03:10:39.373Z,15.99
2016-09-28T03:11:39.665Z,15.96
2016-09-28T03:12:39.381Z,16.02
2016-09-28T03:13:39.697Z,16.03
2016-09-28T03:14:39.682Z,16
2016-09-28T03:15:39.709Z,16.16
2016-09-28T03:16:40.071Z,16.17
2016-09-28T03:17:39.758Z,16.17
2016-09-28T03:18:39.761Z,16.22
2016-09-28T03:19:39.801Z,16.21
2016-09-28T03:20:39.910Z,16.34
2016-09-28T03:21:39.842Z,16.31
2016-09-28T03:22:39.993Z,16.25
2016-09-28T03:23:40.187Z,16.28
2016-09-28T03:24:40.220Z,16.21
2016-09-28T03:25:40.269Z,16.28
2016-09-28T03:26:40.000Z,16.25
2016-09-28T03:27:40.278Z,16.26
2016-09-28T03:28:39.992Z,16.29
2016-09-28T03:29:40.312Z,16.29
2016-09-28T03:30:40.347Z,16.28
2016-09-28T03:31:40.046Z,16.41
2016-09-28T03:32:40.394Z,16.47
2016-09-28T03:33:40.108Z,16.47
2016-09-28T03:34:39.804Z,16.41
2016-09-28T03:35:40.139Z,16.41
2016-09-28T03:36:40.470Z,16.43
2016-09-28T03:37:40.590Z,16.46
2016-09-28T03:38:40.580Z,16.51
2016-09-28T03:39:40.231Z,16.51
2016-09-28T03:40:40.578Z,16.5
2016-09-28T03:41:40.267Z,16.49
2016-09-28T03:42:40.608Z,16.59
2016-09-28T03:43:40.320Z,16.57
2016-09-28T03:44:40.646Z,16.54
2016-09-28T03:45:40.663Z,16.64
2016-09-28T03:46:40.760Z,16.55
2016-09-28T03:47:40.478Z,16.58
2016-09-28T03:48:40.521Z,16.68
2016-09-28T03:49:40.511Z,16.61
2016-09-28T03:50:40.467Z,16.62
2016-09-28T03:51:40.852Z,16.66
2016-09-28T03:52:40.600Z,16.66
2016-09-28T03:53:40.868Z,16.72
2016-09-28T03:54:40.874Z,16.65
2016-09-28T03:55:40.883Z,16.62
2016-09-28T03:56:40.919Z,16.66
2016-09-28T03:57:40.626Z,16.76
2016-09-28T03:58:40.391Z,16.76
2016-09-28T03:59:40.998Z,16.68
2016-09-28T04:00:41.066Z,16.82
2016-09-28T04:01:40.761Z,16.83
2016-09-28T04:02:41.092Z,16.79
2016-09-28T04:03:40.767Z,16.82
2016-09-28T04:04:40.779Z,16.82
2016-09-28T04:05:41.112Z,16.79
2016-09-28T04:06:41.140Z,16.77
2016-09-28T04:07:40.841Z,16.79
2016-09-28T04:08:40.859Z,16.83
2016-09-28T04:09:41.327Z,16.86
2016-09-28T04:10:41.217Z,16.8
2016-09-28T04:11:41.010Z,16.76
2016-09-28T04:12:41.266Z,16.79
2016-09-28T04:13:41.007Z,16.82
2016-09-28T04:14:41.010Z,16.87
2016-09-28T04:15:40.723Z,16.91
2016-09-28T04:16:41.355Z,16.89
2016-09-28T04:17:41.070Z,16.91
2016-09-28T04:18:41.089Z,16.91
2016-09-28T04:19:41.118Z,16.86
2016-09-28T04:20:41.138Z,16.89
2016-09-28T04:21:41.473Z,16.86
2016-09-28T04:22:41.513Z,16.76
2016-09-28T04:23:41.518Z,16.91
2016-09-28T04:24:41.552Z,16.84
2016-09-28T04:25:41.241Z,16.89
2016-09-28T04:26:41.333Z,16.82
2016-09-28T04:27:41.607Z,16.84
2016-09-28T04:28:41.628Z,16.8
2016-09-28T04:29:41.338Z,16.87
2016-09-28T04:30:41.359Z,16.92
2016-09-28T04:31:41.688Z,16.8
2016-09-28T04:32:41.417Z,16.86
2016-09-28T04:33:41.450Z,16.84
2016-09-28T04:34:41.760Z,16.84
2016-09-28T04:35:41.480Z,16.95
2016-09-28T04:36:41.807Z,16.82
2016-09-28T04:37:41.527Z,16.95
2016-09-28T04:38:41.852Z,16.89
2016-09-28T04:39:41.262Z,16.95
2016-09-28T04:40:41.577Z,16.91
2016-09-28T04:41:41.641Z,16.97
2016-09-28T04:42:42.138Z,16.95
2016-09-28T04:43:41.660Z,16.92
2016-09-28T04:44:41.662Z,16.95
2016-09-28T04:45:42.021Z,16.95
2016-09-28T04:46:42.039Z,16.95
2016-09-28T04:47:41.740Z,16.92
2016-09-28T04:48:41.770Z,16.97
2016-09-28T04:49:42.109Z,16.98
2016-09-28T04:50:42.131Z,16.97
2016-09-28T04:51:42.197Z,16.98
2016-09-28T04:52:42.177Z,16.97
2016-09-28T04:53:41.877Z,16.94
2016-09-28T04:54:42.223Z,17.04
2016-09-28T04:55:41.932Z,17.07
2016-09-28T04:56:41.631Z,17.07
2016-09-28T04:57:42.325Z,17.07
2016-09-28T04:58:42.361Z,17.02
2016-09-28T04:59:42.337Z,17.12
2016-09-28T05:00:42.377Z,17.07
2016-09-28T05:01:42.111Z,17.12
2016-09-28T05:02:42.392Z,16.99
2016-09-28T05:03:41.795Z,17.05
2016-09-28T05:04:42.129Z,17.07
2016-09-28T05:05:42.470Z,17.02
2016-09-28T05:06:42.496Z,17.1
2016-09-28T05:07:42.520Z,17.13
2016-09-28T05:08:42.349Z,17.05
2016-09-28T05:09:42.602Z,17.04
2016-09-28T05:10:42.271Z,17.09
2016-09-28T05:11:42.691Z,17.09
2016-09-28T05:12:42.640Z,17.01
2016-09-28T05:13:42.683Z,17.01
2016-09-28T05:14:42.359Z,16.92
2016-09-28T05:15:42.683Z,16.97
2016-09-28T05:16:42.510Z,16.99
2016-09-28T05:17:42.732Z,16.95
2016-09-28T05:18:42.762Z,16.98
2016-09-28T05:19:42.920Z,17.01
2016-09-28T05:20:42.903Z,17.04
2016-09-28T05:21:42.624Z,17.01
2016-09-28T05:22:42.908Z,17.12
2016-09-28T05:23:42.941Z,17.04
2016-09-28T05:24:42.890Z,17.04
2016-09-28T05:25:42.296Z,17.12
2016-09-28T05:26:42.929Z,17.17
2016-09-28T05:27:42.651Z,17.19
2016-09-28T05:28:42.999Z,17.1
2016-09-28T05:29:43.008Z,17.12
2016-09-28T05:30:43.024Z,17.13
2016-09-28T05:31:42.742Z,17.13
2016-09-28T05:32:43.182Z,17.14
2016-09-28T05:33:43.100Z,17.14
2016-09-28T05:34:43.218Z,17.17
2016-09-28T05:35:43.155Z,17.04
2016-09-28T05:36:42.543Z,17.09
2016-09-28T05:37:43.185Z,16.99
2016-09-28T05:38:42.915Z,16.94
2016-09-28T05:39:43.211Z,16.97
2016-09-28T05:40:43.260Z,16.99
2016-09-28T05:41:43.290Z,16.99
2016-09-28T05:42:43.297Z,16.95
2016-09-28T05:43:43.100Z,16.97
2016-09-28T05:44:43.048Z,16.98
2016-09-28T05:45:43.411Z,17.07
2016-09-28T05:46:43.390Z,17.04
2016-09-28T05:47:43.509Z,17.04
2016-09-28T05:48:43.436Z,17.09
2016-09-28T05:49:43.157Z,17.02
2016-09-28T05:50:43.490Z,16.94
2016-09-28T05:51:43.180Z,16.92
2016-09-28T05:52:43.221Z,16.84
2016-09-28T05:53:43.534Z,16.89
2016-09-28T05:54:43.265Z,16.87
2016-09-28T05:55:43.268Z,16.79
2016-09-28T05:56:43.658Z,16.76
2016-09-28T05:57:43.329Z,16.8
2016-09-28T05:58:43.344Z,16.83
2016-09-28T05:59:43.680Z,16.82
2016-09-28T06:00:43.080Z,16.76
2016-09-28T06:01:43.429Z,16.84
2016-09-28T06:02:43.748Z,16.94
2016-09-28T06:03:43.759Z,16.89
2016-09-28T06:04:43.812Z,17.19
2016-09-28T06:05:43.491Z,17.6
2016-09-28T06:06:43.528Z,17.94
2016-09-28T06:07:43.578Z,18.15
2016-09-28T06:08:43.890Z,18.15
2016-09-28T06:09:43.592Z,18.05
2016-09-28T06:10:43.620Z,18.03
2016-09-28T06:11:43.951Z,17.98
2016-09-28T06:12:43.661Z,17.95
2016-09-28T06:13:43.998Z,17.95
2016-09-28T06:14:44.033Z,17.94
2016-09-28T06:15:43.757Z,17.86
2016-09-28T06:16:43.769Z,17.86
2016-09-28T06:17:43.816Z,17.8
2016-09-28T06:18:43.810Z,17.84
2016-09-28T06:19:44.180Z,17.95
2016-09-28T06:20:43.869Z,17.93
2016-09-28T06:21:44.239Z,17.93
2016-09-28T06:22:43.892Z,18
2016-09-28T06:23:43.987Z,17.97
2016-09-28T06:24:44.274Z,17.98
2016-09-28T06:25:44.270Z,17.95
2016-09-28T06:26:43.999Z,17.88
2016-09-28T06:27:44.348Z,17.93
2016-09-28T06:28:44.029Z,17.79
2016-09-28T06:29:44.071Z,17.76
2016-09-28T06:30:43.760Z,17.71
2016-09-28T06:31:44.109Z,17.68
2016-09-28T06:32:44.157Z,17.72
2016-09-28T06:33:44.151Z,17.63
2016-09-28T06:34:44.552Z,17.82
2016-09-28T06:35:44.197Z,18.19
2016-09-28T06:36:44.530Z,18.7
2016-09-28T06:37:44.364Z,19.35
2016-09-28T06:38:44.350Z,19.82
2016-09-28T06:39:44.607Z,20.04
2016-09-28T06:40:44.620Z,20.46
2016-09-28T06:41:44.461Z,20.82
2016-09-28T06:42:44.449Z,21.25
2016-09-28T06:43:44.722Z,21.5
2016-09-28T06:44:44.817Z,21.51
2016-09-28T06:45:44.751Z,21.56
2016-09-28T06:46:44.759Z,21.66
2016-09-28T06:47:44.475Z,21.63
2016-09-28T06:48:44.820Z,21.48
2016-09-28T06:49:44.838Z,21.32
2016-09-28T06:50:44.870Z,21.04
2016-09-28T06:51:44.730Z,20.86
2016-09-28T06:52:45.029Z,20.64
2016-09-28T06:53:44.645Z,20.29
2016-09-28T06:54:44.678Z,20.08
2016-09-28T06:55:45.010Z,19.64
2016-09-28T06:56:45.119Z,19.57
2016-09-28T06:57:45.046Z,19.39
2016-09-28T06:58:44.776Z,19.34
2016-09-28T06:59:45.085Z,19.16
2016-09-28T07:00:45.166Z,19.01
2016-09-28T07:01:45.150Z,18.91
2016-09-28T07:02:45.159Z,18.86
2016-09-28T07:03:44.882Z,18.86
2016-09-28T07:04:45.228Z,19
2016-09-28T07:05:45.234Z,19.01
2016-09-28T07:06:45.409Z,18.96
2016-09-28T07:07:44.683Z,19.07
2016-09-28T07:08:45.309Z,18.97
2016-09-28T07:09:45.031Z,18.97
2016-09-28T07:10:45.361Z,18.97
2016-09-28T07:11:45.079Z,19.15
2016-09-28T07:12:45.100Z,19.29
2016-09-28T07:13:45.435Z,19.35
2016-09-28T07:14:45.146Z,19.34
2016-09-28T07:15:45.168Z,19.59
2016-09-28T07:16:45.521Z,19.59
2016-09-28T07:17:45.281Z,19.52
2016-09-28T07:18:45.547Z,19.6
2016-09-28T07:19:45.580Z,19.62
2016-09-28T07:20:45.598Z,19.57
2016-09-28T07:21:45.632Z,19.44
2016-09-28T07:22:45.649Z,19.34
2016-09-28T07:23:45.371Z,19.42
2016-09-28T07:24:45.406Z,19.37
2016-09-28T07:25:45.720Z,19.32
2016-09-28T07:26:45.867Z,19.35
2016-09-28T07:27:45.781Z,19.35
2016-09-28T07:28:45.489Z,19.42
2016-09-28T07:29:45.218Z,19.59
2016-09-28T07:30:45.534Z,19.64
2016-09-28T07:31:45.558Z,19.66
2016-09-28T07:32:45.901Z,19.64
2016-09-28T07:33:45.930Z,19.53
2016-09-28T07:34:45.951Z,19.52
2016-09-28T07:35:45.663Z,19.63
2016-09-28T07:36:46.001Z,19.71
2016-09-28T07:37:45.712Z,19.67
2016-09-28T07:38:46.040Z,19.64
2016-09-28T07:39:45.769Z,19.67
2016-09-28T07:40:45.799Z,19.85
2016-09-28T07:41:46.117Z,19.64
2016-09-28T07:42:45.843Z,19.81
2016-09-28T07:43:45.551Z,19.79
2016-09-28T07:44:45.890Z,19.99
2016-09-28T07:45:45.906Z,20.1
2016-09-28T07:46:46.666Z,19.94
2016-09-28T07:47:46.294Z,19.94
2016-09-28T07:48:46.630Z,19.87
2016-09-28T07:49:46.446Z,19.85
2016-09-28T07:50:46.640Z,19.96
2016-09-28T07:51:46.061Z,20.1
2016-09-28T07:52:46.089Z,20.19
2016-09-28T07:53:46.535Z,20.32
2016-09-28T07:54:46.321Z,20.44
2016-09-28T07:55:46.467Z,20.37
2016-09-28T07:56:46.601Z,20.44
2016-09-28T07:57:45.927Z,20.49
2016-09-28T07:58:46.571Z,20.36
2016-09-28T07:59:45.959Z,20.27
2016-09-28T08:00:46.601Z,20.22
2016-09-28T08:01:46.753Z,20.18
2016-09-28T08:02:46.529Z,20.11
2016-09-28T08:03:46.666Z,20.08
2016-09-28T08:04:46.543Z,19.93
2016-09-28T08:05:46.713Z,19.87
2016-09-28T08:06:46.742Z,19.72
2016-09-28T08:07:46.771Z,19.71
2016-09-28T08:08:46.542Z,19.57
2016-09-28T08:09:46.185Z,19.57
2016-09-28T08:10:46.843Z,19.67
2016-09-28T08:11:46.729Z,19.66
2016-09-28T08:12:46.670Z,19.67
2016-09-28T08:13:46.759Z,19.67
2016-09-28T08:14:47.045Z,19.84
2016-09-28T08:15:46.762Z,19.81
2016-09-28T08:16:46.974Z,19.89
2016-09-28T08:17:47.007Z,19.9
2016-09-28T08:18:47.040Z,19.79
2016-09-28T08:19:46.766Z,19.84
2016-09-28T08:20:46.622Z,19.92
2016-09-28T08:21:46.810Z,19.84
2016-09-28T08:22:46.830Z,20
2016-09-28T08:23:47.255Z,20.1
2016-09-28T08:24:47.208Z,20.21
2016-09-28T08:25:46.935Z,20.29
2016-09-28T08:26:46.942Z,20.32
2016-09-28T08:27:46.951Z,20.32
2016-09-28T08:28:47.304Z,20.27
2016-09-28T08:29:47.003Z,20.24
2016-09-28T08:30:47.153Z,20.42
2016-09-28T08:31:47.042Z,20.32
2016-09-28T08:32:47.093Z,20.18
2016-09-28T08:33:47.094Z,20.21
2016-09-28T08:34:47.454Z,20.12
2016-09-28T08:35:47.463Z,20.1
2016-09-28T08:36:47.188Z,20.22
2016-09-28T08:37:47.544Z,20.32
2016-09-28T08:38:47.217Z,20.37
2016-09-28T08:39:47.547Z,20.46
2016-09-28T08:40:46.974Z,20.58
2016-09-28T08:41:47.309Z,20.59
2016-09-28T08:42:47.335Z,20.59
2016-09-28T08:43:47.702Z,20.68
2016-09-28T08:44:47.383Z,20.67
2016-09-28T08:45:47.812Z,20.74
2016-09-28T08:46:47.744Z,20.77
2016-09-28T08:47:47.763Z,20.88
2016-09-28T08:48:47.472Z,20.8
2016-09-28T08:49:47.808Z,20.86
2016-09-28T08:50:47.822Z,20.82
2016-09-28T08:51:47.553Z,20.83
2016-09-28T08:52:47.894Z,20.88
2016-09-28T08:53:47.914Z,20.77
2016-09-28T08:54:47.930Z,20.92
2016-09-28T08:55:47.968Z,20.82
2016-09-28T08:56:48.088Z,20.96
2016-09-28T08:57:48.011Z,20.86
2016-09-28T08:58:47.732Z,21
2016-09-28T08:59:47.750Z,20.92
2016-09-28T09:00:48.090Z,21.04
2016-09-28T09:01:48.185Z,21.15
2016-09-28T09:02:47.837Z,21.32
2016-09-28T09:03:48.160Z,21.47
2016-09-28T09:04:48.192Z,21.66
2016-09-28T09:05:47.891Z,21.85
2016-09-28T09:06:48.341Z,21.8
2016-09-28T09:07:47.639Z,21.72
2016-09-28T09:08:48.321Z,21.63
2016-09-28T09:09:48.380Z,21.68
2016-09-28T09:10:48.460Z,21.65
2016-09-28T09:11:48.371Z,21.75
2016-09-28T09:12:48.396Z,21.68
2016-09-28T09:13:48.419Z,21.63
2016-09-28T09:14:48.450Z,21.68
2016-09-28T09:15:48.474Z,21.58
2016-09-28T09:16:48.186Z,21.65
2016-09-28T09:17:48.615Z,21.53
2016-09-28T09:18:49.422Z,21.38
2016-09-28T09:19:48.584Z,21.29
2016-09-28T09:20:48.273Z,21.25
2016-09-28T09:21:48.631Z,21.15
2016-09-28T09:22:48.683Z,21.07
2016-09-28T09:23:48.679Z,21.04
2016-09-28T09:24:48.404Z,21.07
2016-09-28T09:25:48.731Z,20.85
2016-09-28T09:26:48.760Z,20.86
2016-09-28T09:27:48.484Z,20.93
2016-09-28T09:28:48.822Z,20.86
2016-09-28T09:29:48.601Z,20.83
2016-09-28T09:30:48.863Z,20.88
2016-09-28T09:31:48.559Z,20.74
2016-09-28T09:32:48.903Z,20.96
2016-09-28T09:33:48.926Z,20.9
2016-09-28T09:34:48.957Z,20.86
2016-09-28T09:35:48.971Z,20.88
2016-09-28T09:36:49.111Z,20.93
2016-09-28T09:37:49.035Z,20.86
2016-09-28T09:38:49.192Z,20.88
2016-09-28T09:39:49.150Z,20.88
2016-09-28T09:40:49.217Z,20.89
2016-09-28T09:41:48.516Z,21.03
2016-09-28T09:42:49.191Z,21.08
2016-09-28T09:43:48.577Z,21.08
2016-09-28T09:44:48.900Z,21.23
2016-09-28T09:46:21.230Z,21.45
2016-09-28T09:46:49.533Z,21.5
2016-09-28T09:47:49.710Z,21.84
2016-09-28T09:48:49.524Z,22.07
2016-09-28T09:49:49.489Z,22.38
2016-09-28T09:50:49.533Z,22.56
2016-09-28T09:51:48.976Z,22.68
2016-09-28T09:52:49.153Z,22.67
2016-09-28T09:53:49.493Z,22.76
2016-09-28T09:54:49.515Z,22.58
2016-09-28T09:55:49.509Z,22.55
2016-09-28T09:56:49.264Z,22.4
2016-09-28T09:57:49.238Z,22.26
2016-09-28T09:58:49.559Z,22.31
2016-09-28T09:59:49.591Z,22.3
2016-09-28T10:00:49.634Z,22.12
2016-09-28T10:01:49.651Z,22.1
2016-09-28T10:03:21.668Z,22.07
2016-09-28T10:03:49.725Z,22.04
2016-09-28T10:04:49.722Z,21.81
2016-09-28T10:05:49.544Z,21.94
2016-09-28T10:06:49.788Z,22.03
2016-09-28T10:07:49.834Z,22.06
2016-09-28T10:08:49.857Z,22.08
2016-09-28T10:09:49.861Z,22.1
2016-09-28T10:10:49.267Z,22.15
2016-09-28T10:11:49.916Z,22.37
2016-09-28T10:12:49.644Z,22.37
2016-09-28T10:13:50.085Z,22.41
2016-09-28T10:14:49.693Z,22.53
2016-09-28T10:15:49.721Z,22.53
2016-09-28T10:16:50.058Z,22.55
2016-09-28T10:17:50.092Z,22.65
2016-09-28T10:18:50.104Z,22.74
2016-09-28T10:19:50.124Z,22.76
2016-09-28T10:20:49.894Z,22.91
2016-09-28T10:21:49.969Z,22.95
2016-09-28T10:22:49.903Z,23.13
2016-09-28T10:23:50.301Z,23.34
2016-09-28T10:24:50.343Z,23.54
2016-09-28T10:25:50.303Z,23.56
2016-09-28T10:26:50.311Z,23.67
2016-09-28T10:27:50.342Z,23.71
2016-09-28T10:28:50.072Z,23.76
2016-09-28T10:29:50.405Z,23.7
2016-09-28T10:30:50.435Z,23.59
2016-09-28T10:31:50.442Z,23.73
2016-09-28T10:32:50.571Z,23.74
2016-09-28T10:33:49.895Z,23.69
2016-09-28T10:34:50.252Z,23.76
2016-09-28T10:35:50.573Z,23.71
2016-09-28T10:36:50.023Z,23.86
2016-09-28T10:37:50.312Z,23.95
2016-09-28T10:38:50.652Z,24.09
2016-09-28T10:39:50.684Z,24.1
2016-09-28T10:40:50.453Z,24
2016-09-28T10:41:50.469Z,24.18
2016-09-28T10:42:50.465Z,24.16
2016-09-28T10:43:50.932Z,24.22
2016-09-28T10:44:50.295Z,24.24
2016-09-28T10:45:50.892Z,24.21
2016-09-28T10:46:50.569Z,24.22
2016-09-28T10:47:50.592Z,24.22
2016-09-28T10:48:50.325Z,24.22
2016-09-28T10:49:50.655Z,24.18
2016-09-28T10:50:50.992Z,24.18
2016-09-28T10:51:51.008Z,24.28
2016-09-28T10:52:50.823Z,24.21
2016-09-28T10:53:50.877Z,24.16
2016-09-28T10:54:51.191Z,24.21
2016-09-28T10:55:51.221Z,24.37
2016-09-28T10:56:51.183Z,24.4
2016-09-28T10:57:50.566Z,24.55
2016-09-28T10:58:50.902Z,24.61
2016-09-28T10:59:51.259Z,24.65
2016-09-28T11:00:50.959Z,24.68
2016-09-28T11:01:51.324Z,24.61
2016-09-28T11:02:51.324Z,24.58
2016-09-28T11:03:51.357Z,24.61
2016-09-28T11:04:51.082Z,24.63
2016-09-28T11:05:50.782Z,24.55
2016-09-28T11:06:51.444Z,24.62
2016-09-28T11:07:51.151Z,24.78
2016-09-28T11:08:51.176Z,24.77
2016-09-28T11:09:50.903Z,24.65
2016-09-28T11:10:51.243Z,24.69
2016-09-28T11:11:51.275Z,24.84
2016-09-28T11:12:50.982Z,25.01
2016-09-28T11:13:51.025Z,25.06
2016-09-28T11:14:51.664Z,25.03
2016-09-28T11:15:51.693Z,25.04
2016-09-28T11:16:51.714Z,24.75
2016-09-28T11:17:51.130Z,24.81
2016-09-28T11:18:51.774Z,24.66
2016-09-28T11:19:51.817Z,24.74
2016-09-28T11:20:51.836Z,24.68
2016-09-28T11:21:51.867Z,24.77
2016-09-28T11:22:51.906Z,24.82
2016-09-28T11:23:51.600Z,24.81
2016-09-28T11:24:51.643Z,24.86
2016-09-28T11:25:51.672Z,24.93
2016-09-28T11:26:52.064Z,25.06
2016-09-28T11:27:52.028Z,25.16
2016-09-28T11:28:52.147Z,25.26
2016-09-28T11:29:51.784Z,25.3
2016-09-28T11:30:51.898Z,25.25
2016-09-28T11:31:51.861Z,25.03
2016-09-28T11:32:51.874Z,25.03
2016-09-28T11:33:51.910Z,25.06
2016-09-28T11:34:51.940Z,25.03
2016-09-28T11:35:52.147Z,25.03
2016-09-28T11:36:51.881Z,24.89
2016-09-28T11:37:52.513Z,24.75
2016-09-28T11:38:52.507Z,24.74
2016-09-28T11:39:52.183Z,24.61
2016-09-28T11:40:52.524Z,24.58
2016-09-28T11:41:52.278Z,24.48
2016-09-28T11:42:52.522Z,24.38
2016-09-28T11:43:52.563Z,24.36
2016-09-28T11:44:52.574Z,24.36
2016-09-28T11:45:52.545Z,24.36
2016-09-28T11:46:52.657Z,24.37
2016-09-28T11:47:52.332Z,24.41
2016-09-28T11:48:52.641Z,24.46
2016-09-28T11:49:52.363Z,24.58
2016-09-28T11:50:52.384Z,24.56
2016-09-28T11:51:52.234Z,24.47
2016-09-28T11:52:52.542Z,24.44
2016-09-28T11:53:52.474Z,24.43
2016-09-28T11:54:52.542Z,24.53
2016-09-28T11:55:52.843Z,24.66
2016-09-28T11:56:52.579Z,24.66
2016-09-28T11:57:52.603Z,24.77
2016-09-28T11:58:52.925Z,24.69
2016-09-28T11:59:52.646Z,24.68
2016-09-28T12:00:52.995Z,24.77
2016-09-28T12:01:53.020Z,24.71
2016-09-28T12:02:53.039Z,24.81
2016-09-28T12:03:53.063Z,24.81
2016-09-28T12:04:53.224Z,24.78
2016-09-28T12:05:52.861Z,24.82
2016-09-28T12:06:52.874Z,24.69
2016-09-28T12:07:53.177Z,24.66
2016-09-28T12:08:53.205Z,24.78
2016-09-28T12:09:52.963Z,24.89
2016-09-28T12:10:53.272Z,25.03
2016-09-28T12:11:53.063Z,25.19
2016-09-28T12:12:53.323Z,25.33
2016-09-28T12:13:53.364Z,25.25
2016-09-28T12:14:53.384Z,25.37
2016-09-28T12:15:53.533Z,25.4
2016-09-28T12:16:53.132Z,25.4
2016-09-28T12:17:53.269Z,25.34
2016-09-28T12:18:53.494Z,25.33
2016-09-28T12:19:53.226Z,25.29
2016-09-28T12:20:53.559Z,25.24
2016-09-28T12:21:53.582Z,25.16
2016-09-28T12:22:53.624Z,25.18
2016-09-28T12:23:53.335Z,25.25
2016-09-28T12:24:53.692Z,25.15
2016-09-28T12:25:53.696Z,25.31
2016-09-28T12:26:53.754Z,25.34
2016-09-28T12:27:53.789Z,25.34
2016-09-28T12:28:53.796Z,25.44
2016-09-28T12:29:53.545Z,25.54
2016-09-28T12:30:53.525Z,25.58
2016-09-28T12:31:53.861Z,25.68
2016-09-28T12:32:53.905Z,25.67
2016-09-28T12:33:53.933Z,25.66
2016-09-28T12:34:53.658Z,25.71
2016-09-28T12:35:53.988Z,25.66
2016-09-28T12:36:53.694Z,25.8
2016-09-28T12:37:53.735Z,25.73
2016-09-28T12:38:54.079Z,25.73
2016-09-28T12:39:54.100Z,25.61
2016-09-28T12:40:54.133Z,25.62
2016-09-28T12:41:54.165Z,25.56
2016-09-28T12:42:54.192Z,25.62
2016-09-28T12:43:53.987Z,25.59
2016-09-28T12:44:54.265Z,25.66
2016-09-28T12:45:53.970Z,25.73
2016-09-28T12:46:54.464Z,25.67
2016-09-28T12:47:54.336Z,25.67
2016-09-28T12:48:54.054Z,25.43
2016-09-28T12:49:54.382Z,25.48
2016-09-28T12:50:54.485Z,25.41
2016-09-28T12:51:54.154Z,25.54
2016-09-28T12:52:54.490Z,25.4
2016-09-28T12:53:54.190Z,25.24
2016-09-28T12:54:54.549Z,25.29